sensor_id;sensor_type;location;lat;lon;timestamp;P1;durP1;ratioP1;P2;durP2;ratioP2
4011;SDS011;2020;48.682;9.024;2023-04-15T00:00:53;1.53;;;1.43;;
4011;SDS011;2020;48.682;9.024;2023-04-15T00:03:18;0.90;;;0.90;;
4011;SDS011;2020;48.682;9.024;2023-04-15T00:05:43;0.83;;;0.83;;
4011;SDS011;2020;48.682;9.024;2023-04-15T00:08:09;0.87;;;0.87;;
4011;SDS011;2020;48.682;9.024;2023-04-15T00:10:34;0.83;;;0.83;;
4011;SDS011;2020;48.682;9.024;2023-04-15T00:12:59;2.37;;;1.33;;
4011;SDS011;2020;48.682;9.024;2023-04-15T00:15:25;0.93;;;0.83;;
4011;SDS011;2020;48.682;9.024;2023-04-15T00:17:51;1.27;;;1.27;;
4011;SDS011;2020;48.682;9.024;2023-04-15T00:20:16;1.00;;;1.00;;
4011;SDS011;2020;48.682;9.024;2023-04-15T00:22:41;1.77;;;0.90;;
4011;SDS011;2020;48.682;9.024;2023-04-15T00:25:07;0.90;;;0.90;;
4011;SDS011;2020;48.682;9.024;2023-04-15T00:27:33;1.30;;;1.20;;
4011;SDS011;2020;48.682;9.024;2023-04-15T00:29:58;1.17;;;1.07;;
4011;SDS011;2020;48.682;9.024;2023-04-15T00:32:24;1.03;;;0.80;;
4011;SDS011;2020;48.682;9.024;2023-04-15T00:34:49;1.17;;;1.17;;
4011;SDS011;2020;48.682;9.024;2023-04-15T00:37:15;1.30;;;1.30;;
4011;SDS011;2020;48.682;9.024;2023-04-15T00:39:40;1.83;;;1.00;;
4011;SDS011;2020;48.682;9.024;2023-04-15T00:42:05;1.47;;;0.97;;
4011;SDS011;2020;48.682;9.024;2023-04-15T00:44:31;1.20;;;1.10;;
4011;SDS011;2020;48.682;9.024;2023-04-15T00:46:57;0.80;;;0.80;;
4011;SDS011;2020;48.682;9.024;2023-04-15T00:49:24;0.87;;;0.87;;
4011;SDS011;2020;48.682;9.024;2023-04-15T00:51:49;0.80;;;0.80;;
4011;SDS011;2020;48.682;9.024;2023-04-15T00:54:15;1.00;;;0.90;;
4011;SDS011;2020;48.682;9.024;2023-04-15T00:56:40;1.40;;;0.90;;
4011;SDS011;2020;48.682;9.024;2023-04-15T00:59:06;0.97;;;0.90;;
4011;SDS011;2020;48.682;9.024;2023-04-15T01:01:33;1.00;;;1.00;;
4011;SDS011;2020;48.682;9.024;2023-04-15T01:03:59;0.83;;;0.83;;
4011;SDS011;2020;48.682;9.024;2023-04-15T01:06:25;1.00;;;1.00;;
4011;SDS011;2020;48.682;9.024;2023-04-15T01:08:51;0.83;;;0.83;;
4011;SDS011;2020;48.682;9.024;2023-04-15T01:11:18;1.43;;;1.00;;
4011;SDS011;2020;48.682;9.024;2023-04-15T01:13:43;1.03;;;0.90;;
4011;SDS011;2020;48.682;9.024;2023-04-15T01:16:10;1.10;;;0.93;;
4011;SDS011;2020;48.682;9.024;2023-04-15T01:18:37;1.30;;;1.30;;
4011;SDS011;2020;48.682;9.024;2023-04-15T01:21:03;1.10;;;0.70;;
4011;SDS011;2020;48.682;9.024;2023-04-15T01:23:29;1.13;;;1.13;;
4011;SDS011;2020;48.682;9.024;2023-04-15T01:25:55;0.90;;;0.90;;
4011;SDS011;2020;48.682;9.024;2023-04-15T01:28:21;0.93;;;0.93;;
4011;SDS011;2020;48.682;9.024;2023-04-15T01:30:46;1.03;;;1.00;;
4011;SDS011;2020;48.682;9.024;2023-04-15T01:33:12;1.90;;;0.97;;
4011;SDS011;2020;48.682;9.024;2023-04-15T01:35:38;1.00;;;1.00;;
4011;SDS011;2020;48.682;9.024;2023-04-15T01:38:07;1.10;;;1.00;;
4011;SDS011;2020;48.682;9.024;2023-04-15T01:40:33;1.37;;;1.00;;
4011;SDS011;2020;48.682;9.024;2023-04-15T01:42:59;3.37;;;2.03;;
4011;SDS011;2020;48.682;9.024;2023-04-15T01:45:26;1.10;;;1.10;;
4011;SDS011;2020;48.682;9.024;2023-04-15T01:47:51;0.93;;;0.93;;
4011;SDS011;2020;48.682;9.024;2023-04-15T01:50:16;0.97;;;0.90;;
4011;SDS011;2020;48.682;9.024;2023-04-15T01:52:42;1.53;;;1.53;;
4011;SDS011;2020;48.682;9.024;2023-04-15T01:55:08;1.87;;;1.67;;
4011;SDS011;2020;48.682;9.024;2023-04-15T01:57:34;0.80;;;0.80;;
4011;SDS011;2020;48.682;9.024;2023-04-15T01:59:59;0.70;;;0.70;;
4011;SDS011;2020;48.682;9.024;2023-04-15T02:02:25;1.63;;;1.63;;
4011;SDS011;2020;48.682;9.024;2023-04-15T02:04:50;1.43;;;1.43;;
4011;SDS011;2020;48.682;9.024;2023-04-15T02:07:15;1.03;;;0.93;;
4011;SDS011;2020;48.682;9.024;2023-04-15T02:09:40;1.07;;;1.07;;
4011;SDS011;2020;48.682;9.024;2023-04-15T02:12:06;1.10;;;1.00;;
4011;SDS011;2020;48.682;9.024;2023-04-15T02:14:31;1.17;;;1.07;;
4011;SDS011;2020;48.682;9.024;2023-04-15T02:16:56;0.90;;;0.90;;
4011;SDS011;2020;48.682;9.024;2023-04-15T02:19:21;1.17;;;1.17;;
4011;SDS011;2020;48.682;9.024;2023-04-15T02:21:47;1.27;;;1.27;;
4011;SDS011;2020;48.682;9.024;2023-04-15T02:24:12;0.90;;;0.90;;
4011;SDS011;2020;48.682;9.024;2023-04-15T02:26:37;0.90;;;0.90;;
4011;SDS011;2020;48.682;9.024;2023-04-15T02:29:02;1.30;;;1.30;;
4011;SDS011;2020;48.682;9.024;2023-04-15T02:31:28;1.50;;;1.40;;
4011;SDS011;2020;48.682;9.024;2023-04-15T02:33:53;1.43;;;1.07;;
4011;SDS011;2020;48.682;9.024;2023-04-15T02:36:18;1.27;;;1.17;;
4011;SDS011;2020;48.682;9.024;2023-04-15T02:38:45;1.47;;;1.40;;
4011;SDS011;2020;48.682;9.024;2023-04-15T02:41:10;3.97;;;1.27;;
4011;SDS011;2020;48.682;9.024;2023-04-15T02:43:35;1.67;;;1.57;;
4011;SDS011;2020;48.682;9.024;2023-04-15T02:46:02;1.50;;;1.40;;
4011;SDS011;2020;48.682;9.024;2023-04-15T02:48:27;1.40;;;1.07;;
4011;SDS011;2020;48.682;9.024;2023-04-15T02:50:53;1.83;;;1.73;;
4011;SDS011;2020;48.682;9.024;2023-04-15T02:53:18;1.33;;;1.33;;
4011;SDS011;2020;48.682;9.024;2023-04-15T02:55:44;1.57;;;1.47;;
4011;SDS011;2020;48.682;9.024;2023-04-15T02:58:10;1.00;;;1.00;;
4011;SDS011;2020;48.682;9.024;2023-04-15T03:00:35;1.20;;;1.10;;
4011;SDS011;2020;48.682;9.024;2023-04-15T03:03:04;1.10;;;1.10;;
4011;SDS011;2020;48.682;9.024;2023-04-15T03:05:30;1.13;;;1.13;;
4011;SDS011;2020;48.682;9.024;2023-04-15T03:07:55;1.63;;;1.47;;
4011;SDS011;2020;48.682;9.024;2023-04-15T03:10:20;1.47;;;1.13;;
4011;SDS011;2020;48.682;9.024;2023-04-15T03:12:46;1.50;;;1.40;;
4011;SDS011;2020;48.682;9.024;2023-04-15T03:15:12;4.20;;;1.30;;
4011;SDS011;2020;48.682;9.024;2023-04-15T03:17:37;1.20;;;1.20;;
4011;SDS011;2020;48.682;9.024;2023-04-15T03:20:03;1.50;;;1.50;;
4011;SDS011;2020;48.682;9.024;2023-04-15T03:22:30;0.83;;;0.83;;
4011;SDS011;2020;48.682;9.024;2023-04-15T03:24:56;0.97;;;0.97;;
4011;SDS011;2020;48.682;9.024;2023-04-15T03:27:21;1.77;;;1.07;;
4011;SDS011;2020;48.682;9.024;2023-04-15T03:29:47;1.63;;;1.50;;
4011;SDS011;2020;48.682;9.024;2023-04-15T03:32:12;0.90;;;0.90;;
4011;SDS011;2020;48.682;9.024;2023-04-15T03:34:39;1.10;;;1.10;;
4011;SDS011;2020;48.682;9.024;2023-04-15T03:37:04;0.90;;;0.90;;
4011;SDS011;2020;48.682;9.024;2023-04-15T03:39:29;1.03;;;1.03;;
4011;SDS011;2020;48.682;9.024;2023-04-15T03:41:55;1.97;;;1.83;;
4011;SDS011;2020;48.682;9.024;2023-04-15T03:44:21;1.17;;;0.97;;
4011;SDS011;2020;48.682;9.024;2023-04-15T03:46:47;2.57;;;1.27;;
4011;SDS011;2020;48.682;9.024;2023-04-15T03:49:12;1.37;;;1.37;;
4011;SDS011;2020;48.682;9.024;2023-04-15T03:51:38;1.30;;;1.20;;
4011;SDS011;2020;48.682;9.024;2023-04-15T03:54:03;2.07;;;1.20;;
4011;SDS011;2020;48.682;9.024;2023-04-15T03:56:28;0.80;;;0.80;;
4011;SDS011;2020;48.682;9.024;2023-04-15T03:58:53;1.50;;;1.27;;
4011;SDS011;2020;48.682;9.024;2023-04-15T04:01:19;1.00;;;1.00;;
4011;SDS011;2020;48.682;9.024;2023-04-15T04:03:45;3.53;;;1.43;;
4011;SDS011;2020;48.682;9.024;2023-04-15T04:06:10;1.13;;;1.03;;
4011;SDS011;2020;48.682;9.024;2023-04-15T04:08:36;1.17;;;1.17;;
4011;SDS011;2020;48.682;9.024;2023-04-15T04:11:02;1.00;;;1.00;;
4011;SDS011;2020;48.682;9.024;2023-04-15T04:13:27;2.20;;;1.10;;
4011;SDS011;2020;48.682;9.024;2023-04-15T04:15:52;1.10;;;1.10;;
4011;SDS011;2020;48.682;9.024;2023-04-15T04:18:18;1.40;;;1.33;;
4011;SDS011;2020;48.682;9.024;2023-04-15T04:20:43;1.23;;;1.23;;
4011;SDS011;2020;48.682;9.024;2023-04-15T04:23:08;1.90;;;1.50;;
4011;SDS011;2020;48.682;9.024;2023-04-15T04:25:34;0.90;;;0.90;;
4011;SDS011;2020;48.682;9.024;2023-04-15T04:27:59;1.30;;;1.20;;
4011;SDS011;2020;48.682;9.024;2023-04-15T04:30:24;1.60;;;1.60;;
4011;SDS011;2020;48.682;9.024;2023-04-15T04:32:50;1.30;;;0.80;;
4011;SDS011;2020;48.682;9.024;2023-04-15T04:35:15;1.00;;;0.90;;
4011;SDS011;2020;48.682;9.024;2023-04-15T04:37:41;0.90;;;0.90;;
4011;SDS011;2020;48.682;9.024;2023-04-15T04:40:06;0.80;;;0.80;;
4011;SDS011;2020;48.682;9.024;2023-04-15T04:42:33;1.63;;;1.43;;
4011;SDS011;2020;48.682;9.024;2023-04-15T04:44:58;0.80;;;0.80;;
4011;SDS011;2020;48.682;9.024;2023-04-15T04:47:24;1.50;;;1.40;;
4011;SDS011;2020;48.682;9.024;2023-04-15T04:49:49;1.20;;;1.10;;
4011;SDS011;2020;48.682;9.024;2023-04-15T04:52:14;1.60;;;1.60;;
4011;SDS011;2020;48.682;9.024;2023-04-15T04:54:40;1.67;;;1.57;;
4011;SDS011;2020;48.682;9.024;2023-04-15T04:57:05;1.23;;;1.13;;
4011;SDS011;2020;48.682;9.024;2023-04-15T04:59:32;1.30;;;1.30;;
4011;SDS011;2020;48.682;9.024;2023-04-15T05:01:57;1.07;;;1.07;;
4011;SDS011;2020;48.682;9.024;2023-04-15T05:04:22;1.00;;;1.00;;
4011;SDS011;2020;48.682;9.024;2023-04-15T05:06:48;1.00;;;1.00;;
4011;SDS011;2020;48.682;9.024;2023-04-15T05:09:13;1.70;;;1.70;;
4011;SDS011;2020;48.682;9.024;2023-04-15T05:11:38;1.43;;;1.33;;
4011;SDS011;2020;48.682;9.024;2023-04-15T05:14:03;0.90;;;0.90;;
4011;SDS011;2020;48.682;9.024;2023-04-15T05:16:29;1.33;;;1.33;;
4011;SDS011;2020;48.682;9.024;2023-04-15T05:18:54;1.53;;;1.43;;
4011;SDS011;2020;48.682;9.024;2023-04-15T05:21:19;2.33;;;1.83;;
4011;SDS011;2020;48.682;9.024;2023-04-15T05:23:45;0.83;;;0.83;;
4011;SDS011;2020;48.682;9.024;2023-04-15T05:26:10;1.10;;;1.10;;
4011;SDS011;2020;48.682;9.024;2023-04-15T05:28:35;1.50;;;1.40;;
4011;SDS011;2020;48.682;9.024;2023-04-15T05:31:01;0.87;;;0.87;;
4011;SDS011;2020;48.682;9.024;2023-04-15T05:33:26;1.20;;;1.20;;
4011;SDS011;2020;48.682;9.024;2023-04-15T05:35:51;0.90;;;0.90;;
4011;SDS011;2020;48.682;9.024;2023-04-15T05:38:17;1.37;;;1.37;;
4011;SDS011;2020;48.682;9.024;2023-04-15T05:40:42;1.57;;;1.47;;
4011;SDS011;2020;48.682;9.024;2023-04-15T05:43:07;0.93;;;0.93;;
4011;SDS011;2020;48.682;9.024;2023-04-15T05:45:32;1.53;;;1.50;;
4011;SDS011;2020;48.682;9.024;2023-04-15T05:47:58;1.10;;;1.10;;
4011;SDS011;2020;48.682;9.024;2023-04-15T05:50:23;1.10;;;1.10;;
4011;SDS011;2020;48.682;9.024;2023-04-15T05:52:48;1.33;;;1.33;;
4011;SDS011;2020;48.682;9.024;2023-04-15T05:55:14;1.53;;;1.43;;
4011;SDS011;2020;48.682;9.024;2023-04-15T05:57:39;1.57;;;1.50;;
4011;SDS011;2020;48.682;9.024;2023-04-15T06:00:05;9.40;;;1.97;;
4011;SDS011;2020;48.682;9.024;2023-04-15T06:02:30;1.50;;;1.50;;
4011;SDS011;2020;48.682;9.024;2023-04-15T06:04:56;1.47;;;1.47;;
4011;SDS011;2020;48.682;9.024;2023-04-15T06:07:22;1.77;;;1.67;;
4011;SDS011;2020;48.682;9.024;2023-04-15T06:09:48;2.73;;;1.27;;
4011;SDS011;2020;48.682;9.024;2023-04-15T06:12:13;1.60;;;1.60;;
4011;SDS011;2020;48.682;9.024;2023-04-15T06:14:39;1.90;;;1.80;;
4011;SDS011;2020;48.682;9.024;2023-04-15T06:17:04;2.30;;;2.20;;
4011;SDS011;2020;48.682;9.024;2023-04-15T06:19:30;1.90;;;1.80;;
4011;SDS011;2020;48.682;9.024;2023-04-15T06:21:56;2.73;;;1.90;;
4011;SDS011;2020;48.682;9.024;2023-04-15T06:24:22;1.37;;;1.37;;
4011;SDS011;2020;48.682;9.024;2023-04-15T06:26:47;2.93;;;2.27;;
4011;SDS011;2020;48.682;9.024;2023-04-15T06:29:12;2.13;;;2.03;;
4011;SDS011;2020;48.682;9.024;2023-04-15T06:31:38;3.50;;;3.07;;
4011;SDS011;2020;48.682;9.024;2023-04-15T06:34:03;2.80;;;2.40;;
4011;SDS011;2020;48.682;9.024;2023-04-15T06:36:29;2.67;;;2.57;;
4011;SDS011;2020;48.682;9.024;2023-04-15T06:38:54;1.63;;;1.63;;
4011;SDS011;2020;48.682;9.024;2023-04-15T06:41:21;2.37;;;2.17;;
4011;SDS011;2020;48.682;9.024;2023-04-15T06:43:46;2.17;;;2.07;;
4011;SDS011;2020;48.682;9.024;2023-04-15T06:46:11;2.03;;;1.93;;
4011;SDS011;2020;48.682;9.024;2023-04-15T06:48:37;1.63;;;1.57;;
4011;SDS011;2020;48.682;9.024;2023-04-15T06:51:02;1.80;;;1.70;;
4011;SDS011;2020;48.682;9.024;2023-04-15T06:53:28;2.17;;;2.07;;
4011;SDS011;2020;48.682;9.024;2023-04-15T06:55:53;1.80;;;1.80;;
4011;SDS011;2020;48.682;9.024;2023-04-15T06:58:18;2.73;;;2.53;;
4011;SDS011;2020;48.682;9.024;2023-04-15T07:00:43;2.57;;;2.37;;
4011;SDS011;2020;48.682;9.024;2023-04-15T07:03:09;2.20;;;2.10;;
4011;SDS011;2020;48.682;9.024;2023-04-15T07:05:36;2.13;;;2.03;;
4011;SDS011;2020;48.682;9.024;2023-04-15T07:08:02;1.80;;;1.70;;
4011;SDS011;2020;48.682;9.024;2023-04-15T07:10:28;1.93;;;1.83;;
4011;SDS011;2020;48.682;9.024;2023-04-15T07:12:53;3.33;;;1.63;;
4011;SDS011;2020;48.682;9.024;2023-04-15T07:15:18;2.10;;;2.00;;
4011;SDS011;2020;48.682;9.024;2023-04-15T07:17:44;1.20;;;1.20;;
4011;SDS011;2020;48.682;9.024;2023-04-15T07:20:09;1.63;;;1.63;;
4011;SDS011;2020;48.682;9.024;2023-04-15T07:22:35;1.50;;;1.40;;
4011;SDS011;2020;48.682;9.024;2023-04-15T07:25:00;1.47;;;1.27;;
4011;SDS011;2020;48.682;9.024;2023-04-15T07:27:25;2.10;;;1.20;;
4011;SDS011;2020;48.682;9.024;2023-04-15T07:29:51;1.00;;;1.00;;
4011;SDS011;2020;48.682;9.024;2023-04-15T07:32:17;2.20;;;1.70;;
4011;SDS011;2020;48.682;9.024;2023-04-15T07:34:42;1.37;;;1.37;;
4011;SDS011;2020;48.682;9.024;2023-04-15T07:37:08;1.10;;;1.00;;
4011;SDS011;2020;48.682;9.024;2023-04-15T07:39:33;0.90;;;0.90;;
4011;SDS011;2020;48.682;9.024;2023-04-15T07:41:58;0.80;;;0.80;;
4011;SDS011;2020;48.682;9.024;2023-04-15T07:44:24;1.53;;;1.00;;
4011;SDS011;2020;48.682;9.024;2023-04-15T07:46:50;1.00;;;1.00;;
4011;SDS011;2020;48.682;9.024;2023-04-15T07:49:16;1.00;;;1.00;;
4011;SDS011;2020;48.682;9.024;2023-04-15T07:51:43;3.50;;;1.20;;
4011;SDS011;2020;48.682;9.024;2023-04-15T07:54:08;0.80;;;0.80;;
4011;SDS011;2020;48.682;9.024;2023-04-15T07:56:33;1.20;;;1.10;;
4011;SDS011;2020;48.682;9.024;2023-04-15T07:58:59;0.90;;;0.90;;
4011;SDS011;2020;48.682;9.024;2023-04-15T08:01:26;1.83;;;1.20;;
4011;SDS011;2020;48.682;9.024;2023-04-15T08:03:51;1.67;;;1.60;;
4011;SDS011;2020;48.682;9.024;2023-04-15T08:06:17;1.10;;;1.10;;
4011;SDS011;2020;48.682;9.024;2023-04-15T08:08:42;1.47;;;1.37;;
4011;SDS011;2020;48.682;9.024;2023-04-15T08:11:07;2.60;;;1.50;;
4011;SDS011;2020;48.682;9.024;2023-04-15T08:13:33;1.27;;;1.10;;
4011;SDS011;2020;48.682;9.024;2023-04-15T08:16:15;1.20;;;1.20;;
4011;SDS011;2020;48.682;9.024;2023-04-15T08:18:43;0.83;;;0.83;;
4011;SDS011;2020;48.682;9.024;2023-04-15T08:21:09;1.10;;;1.10;;
4011;SDS011;2020;48.682;9.024;2023-04-15T08:23:34;1.30;;;1.30;;
4011;SDS011;2020;48.682;9.024;2023-04-15T08:26:00;3.23;;;0.97;;
4011;SDS011;2020;48.682;9.024;2023-04-15T08:28:25;4.83;;;1.47;;
4011;SDS011;2020;48.682;9.024;2023-04-15T08:30:51;1.37;;;1.27;;
4011;SDS011;2020;48.682;9.024;2023-04-15T08:33:17;1.80;;;0.90;;
4011;SDS011;2020;48.682;9.024;2023-04-15T08:35:42;2.87;;;1.00;;
4011;SDS011;2020;48.682;9.024;2023-04-15T08:38:07;1.40;;;1.40;;
4011;SDS011;2020;48.682;9.024;2023-04-15T08:40:35;0.90;;;0.90;;
4011;SDS011;2020;48.682;9.024;2023-04-15T08:43:05;1.00;;;1.00;;
4011;SDS011;2020;48.682;9.024;2023-04-15T08:45:33;1.47;;;1.37;;
4011;SDS011;2020;48.682;9.024;2023-04-15T08:48:02;9.30;;;1.50;;
4011;SDS011;2020;48.682;9.024;2023-04-15T08:50:29;0.70;;;0.70;;
4011;SDS011;2020;48.682;9.024;2023-04-15T08:52:57;1.90;;;1.40;;
4011;SDS011;2020;48.682;9.024;2023-04-15T08:55:24;1.10;;;1.00;;
4011;SDS011;2020;48.682;9.024;2023-04-15T08:57:53;2.00;;;0.97;;
4011;SDS011;2020;48.682;9.024;2023-04-15T09:00:20;0.70;;;0.70;;
4011;SDS011;2020;48.682;9.024;2023-04-15T09:02:46;0.77;;;0.77;;
4011;SDS011;2020;48.682;9.024;2023-04-15T09:05:11;1.33;;;1.33;;
4011;SDS011;2020;48.682;9.024;2023-04-15T09:07:36;0.90;;;0.80;;
4011;SDS011;2020;48.682;9.024;2023-04-15T09:10:02;0.60;;;0.60;;
4011;SDS011;2020;48.682;9.024;2023-04-15T09:12:28;0.80;;;0.80;;
4011;SDS011;2020;48.682;9.024;2023-04-15T09:14:53;1.27;;;0.70;;
4011;SDS011;2020;48.682;9.024;2023-04-15T09:17:19;1.17;;;0.70;;
4011;SDS011;2020;48.682;9.024;2023-04-15T09:19:45;1.33;;;0.90;;
4011;SDS011;2020;48.682;9.024;2023-04-15T09:22:11;1.13;;;1.03;;
4011;SDS011;2020;48.682;9.024;2023-04-15T09:24:38;1.97;;;0.80;;
4011;SDS011;2020;48.682;9.024;2023-04-15T09:27:05;1.53;;;0.87;;
4011;SDS011;2020;48.682;9.024;2023-04-15T09:29:30;0.90;;;0.80;;
4011;SDS011;2020;48.682;9.024;2023-04-15T09:31:56;2.20;;;1.10;;
4011;SDS011;2020;48.682;9.024;2023-04-15T09:34:36;1.00;;;1.00;;
4011;SDS011;2020;48.682;9.024;2023-04-15T09:37:02;0.80;;;0.80;;
4011;SDS011;2020;48.682;9.024;2023-04-15T09:39:41;1.37;;;0.70;;
4011;SDS011;2020;48.682;9.024;2023-04-15T09:42:13;0.67;;;0.67;;
4011;SDS011;2020;48.682;9.024;2023-04-15T09:44:39;1.47;;;0.83;;
4011;SDS011;2020;48.682;9.024;2023-04-15T09:47:04;0.63;;;0.63;;
4011;SDS011;2020;48.682;9.024;2023-04-15T09:49:29;1.53;;;0.93;;
4011;SDS011;2020;48.682;9.024;2023-04-15T09:52:01;1.83;;;0.80;;
4011;SDS011;2020;48.682;9.024;2023-04-15T09:54:31;0.80;;;0.73;;
4011;SDS011;2020;48.682;9.024;2023-04-15T09:57:03;0.80;;;0.80;;
4011;SDS011;2020;48.682;9.024;2023-04-15T09:59:33;0.70;;;0.70;;
4011;SDS011;2020;48.682;9.024;2023-04-15T10:01:58;0.70;;;0.70;;
4011;SDS011;2020;48.682;9.024;2023-04-15T10:04:24;0.70;;;0.70;;
4011;SDS011;2020;48.682;9.024;2023-04-15T10:06:52;0.83;;;0.83;;
4011;SDS011;2020;48.682;9.024;2023-04-15T10:09:17;1.10;;;1.00;;
4011;SDS011;2020;48.682;9.024;2023-04-15T10:11:43;1.03;;;1.00;;
4011;SDS011;2020;48.682;9.024;2023-04-15T10:14:09;2.87;;;1.13;;
4011;SDS011;2020;48.682;9.024;2023-04-15T10:16:37;0.63;;;0.63;;
4011;SDS011;2020;48.682;9.024;2023-04-15T10:19:06;3.83;;;1.10;;
4011;SDS011;2020;48.682;9.024;2023-04-15T10:21:33;0.93;;;0.93;;
4011;SDS011;2020;48.682;9.024;2023-04-15T10:23:59;5.23;;;1.17;;
4011;SDS011;2020;48.682;9.024;2023-04-15T10:26:26;1.57;;;1.43;;
4011;SDS011;2020;48.682;9.024;2023-04-15T10:28:52;0.77;;;0.77;;
4011;SDS011;2020;48.682;9.024;2023-04-15T10:31:17;0.80;;;0.80;;
4011;SDS011;2020;48.682;9.024;2023-04-15T10:33:43;2.53;;;0.90;;
4011;SDS011;2020;48.682;9.024;2023-04-15T10:36:11;1.13;;;0.83;;
4011;SDS011;2020;48.682;9.024;2023-04-15T10:38:38;0.80;;;0.80;;
4011;SDS011;2020;48.682;9.024;2023-04-15T10:41:17;0.87;;;0.87;;
4011;SDS011;2020;48.682;9.024;2023-04-15T10:43:56;0.90;;;0.90;;
4011;SDS011;2020;48.682;9.024;2023-04-15T10:46:38;1.57;;;1.20;;
4011;SDS011;2020;48.682;9.024;2023-04-15T10:49:08;1.03;;;0.73;;
4011;SDS011;2020;48.682;9.024;2023-04-15T10:51:36;2.53;;;1.03;;
4011;SDS011;2020;48.682;9.024;2023-04-15T10:54:12;2.70;;;1.00;;
4011;SDS011;2020;48.682;9.024;2023-04-15T10:56:40;2.00;;;0.90;;
4011;SDS011;2020;48.682;9.024;2023-04-15T10:59:09;0.70;;;0.70;;
4011;SDS011;2020;48.682;9.024;2023-04-15T11:01:51;1.90;;;1.47;;
4011;SDS011;2020;48.682;9.024;2023-04-15T11:12:37;1.43;;;1.43;;
4011;SDS011;2020;48.682;9.024;2023-04-15T11:17:53;1.70;;;1.60;;
4011;SDS011;2020;48.682;9.024;2023-04-15T11:20:19;3.27;;;2.13;;
4011;SDS011;2020;48.682;9.024;2023-04-15T11:22:46;1.87;;;1.50;;
4011;SDS011;2020;48.682;9.024;2023-04-15T11:25:28;2.97;;;1.83;;
4011;SDS011;2020;48.682;9.024;2023-04-15T11:27:55;1.30;;;1.30;;
4011;SDS011;2020;48.682;9.024;2023-04-15T11:30:22;1.70;;;1.60;;
4011;SDS011;2020;48.682;9.024;2023-04-15T11:32:49;1.23;;;1.23;;
4011;SDS011;2020;48.682;9.024;2023-04-15T11:35:16;1.80;;;1.70;;
4011;SDS011;2020;48.682;9.024;2023-04-15T11:37:43;1.30;;;1.30;;
4011;SDS011;2020;48.682;9.024;2023-04-15T11:40:09;1.67;;;1.67;;
4011;SDS011;2020;48.682;9.024;2023-04-15T11:42:34;2.00;;;1.27;;
4011;SDS011;2020;48.682;9.024;2023-04-15T11:45:07;1.20;;;1.20;;
4011;SDS011;2020;48.682;9.024;2023-04-15T11:47:33;1.33;;;1.00;;
4011;SDS011;2020;48.682;9.024;2023-04-15T11:52:55;3.37;;;1.37;;
4011;SDS011;2020;48.682;9.024;2023-04-15T11:55:25;2.30;;;2.20;;
4011;SDS011;2020;48.682;9.024;2023-04-15T11:58:09;1.10;;;1.10;;
4011;SDS011;2020;48.682;9.024;2023-04-15T12:00:35;1.40;;;1.40;;
4011;SDS011;2020;48.682;9.024;2023-04-15T12:03:15;1.50;;;1.50;;
4011;SDS011;2020;48.682;9.024;2023-04-15T12:08:54;1.67;;;1.57;;
4011;SDS011;2020;48.682;9.024;2023-04-15T12:13:52;3.97;;;1.93;;
4011;SDS011;2020;48.682;9.024;2023-04-15T12:16:19;1.20;;;1.20;;
4011;SDS011;2020;48.682;9.024;2023-04-15T12:18:47;1.53;;;1.53;;
4011;SDS011;2020;48.682;9.024;2023-04-15T12:21:18;1.60;;;1.60;;
4011;SDS011;2020;48.682;9.024;2023-04-15T12:23:48;1.80;;;1.70;;
4011;SDS011;2020;48.682;9.024;2023-04-15T12:26:17;1.93;;;1.73;;
4011;SDS011;2020;48.682;9.024;2023-04-15T12:28:52;1.90;;;1.80;;
4011;SDS011;2020;48.682;9.024;2023-04-15T12:34:15;2.27;;;2.17;;
4011;SDS011;2020;48.682;9.024;2023-04-15T12:36:41;2.40;;;2.00;;
4011;SDS011;2020;48.682;9.024;2023-04-15T12:39:07;2.73;;;2.03;;
4011;SDS011;2020;48.682;9.024;2023-04-15T12:41:33;2.10;;;2.00;;
4011;SDS011;2020;48.682;9.024;2023-04-15T12:43:58;2.00;;;2.00;;
4011;SDS011;2020;48.682;9.024;2023-04-15T12:46:24;1.63;;;1.53;;
4011;SDS011;2020;48.682;9.024;2023-04-15T12:48:49;2.27;;;2.17;;
4011;SDS011;2020;48.682;9.024;2023-04-15T12:51:19;2.87;;;2.67;;
4011;SDS011;2020;48.682;9.024;2023-04-15T12:53:47;1.97;;;1.97;;
4011;SDS011;2020;48.682;9.024;2023-04-15T12:56:13;1.50;;;1.50;;
4011;SDS011;2020;48.682;9.024;2023-04-15T12:58:39;2.30;;;2.10;;
4011;SDS011;2020;48.682;9.024;2023-04-15T13:01:04;2.43;;;2.33;;
4011;SDS011;2020;48.682;9.024;2023-04-15T13:03:30;2.20;;;2.10;;
4011;SDS011;2020;48.682;9.024;2023-04-15T13:05:55;2.63;;;2.53;;
4011;SDS011;2020;48.682;9.024;2023-04-15T13:08:21;1.93;;;1.83;;
4011;SDS011;2020;48.682;9.024;2023-04-15T13:10:47;2.50;;;1.73;;
4011;SDS011;2020;48.682;9.024;2023-04-15T13:13:12;2.10;;;2.03;;
4011;SDS011;2020;48.682;9.024;2023-04-15T13:15:37;1.50;;;1.50;;
4011;SDS011;2020;48.682;9.024;2023-04-15T13:18:03;1.83;;;1.73;;
4011;SDS011;2020;48.682;9.024;2023-04-15T13:20:30;4.63;;;2.20;;
4011;SDS011;2020;48.682;9.024;2023-04-15T13:22:55;2.60;;;1.90;;
4011;SDS011;2020;48.682;9.024;2023-04-15T13:25:21;2.00;;;1.70;;
4011;SDS011;2020;48.682;9.024;2023-04-15T13:27:46;3.13;;;3.03;;
4011;SDS011;2020;48.682;9.024;2023-04-15T13:30:12;1.97;;;1.87;;
4011;SDS011;2020;48.682;9.024;2023-04-15T13:32:37;2.13;;;1.97;;
4011;SDS011;2020;48.682;9.024;2023-04-15T13:35:03;1.90;;;1.90;;
4011;SDS011;2020;48.682;9.024;2023-04-15T13:37:29;2.30;;;1.50;;
4011;SDS011;2020;48.682;9.024;2023-04-15T13:39:55;1.47;;;1.47;;
4011;SDS011;2020;48.682;9.024;2023-04-15T13:42:20;2.77;;;1.80;;
4011;SDS011;2020;48.682;9.024;2023-04-15T13:44:46;2.23;;;2.00;;
4011;SDS011;2020;48.682;9.024;2023-04-15T13:47:13;1.70;;;1.70;;
4011;SDS011;2020;48.682;9.024;2023-04-15T13:49:40;2.70;;;2.20;;
4011;SDS011;2020;48.682;9.024;2023-04-15T13:52:05;2.60;;;2.10;;
4011;SDS011;2020;48.682;9.024;2023-04-15T13:54:30;2.17;;;2.10;;
4011;SDS011;2020;48.682;9.024;2023-04-15T13:56:56;4.77;;;2.30;;
4011;SDS011;2020;48.682;9.024;2023-04-15T13:59:22;1.67;;;1.67;;
4011;SDS011;2020;48.682;9.024;2023-04-15T14:01:47;3.23;;;1.60;;
4011;SDS011;2020;48.682;9.024;2023-04-15T14:04:13;2.20;;;2.03;;
4011;SDS011;2020;48.682;9.024;2023-04-15T14:06:38;1.57;;;1.57;;
4011;SDS011;2020;48.682;9.024;2023-04-15T14:09:04;1.03;;;1.03;;
4011;SDS011;2020;48.682;9.024;2023-04-15T14:11:29;2.13;;;1.30;;
4011;SDS011;2020;48.682;9.024;2023-04-15T14:13:54;1.40;;;1.40;;
4011;SDS011;2020;48.682;9.024;2023-04-15T14:16:19;1.57;;;1.47;;
4011;SDS011;2020;48.682;9.024;2023-04-15T14:18:45;2.83;;;1.53;;
4011;SDS011;2020;48.682;9.024;2023-04-15T14:21:10;0.70;;;0.70;;
4011;SDS011;2020;48.682;9.024;2023-04-15T14:23:35;0.80;;;0.80;;
4011;SDS011;2020;48.682;9.024;2023-04-15T14:26:01;1.63;;;1.53;;
4011;SDS011;2020;48.682;9.024;2023-04-15T14:28:26;1.77;;;0.80;;
4011;SDS011;2020;48.682;9.024;2023-04-15T14:30:51;0.70;;;0.70;;
4011;SDS011;2020;48.682;9.024;2023-04-15T14:33:18;3.43;;;1.20;;
4011;SDS011;2020;48.682;9.024;2023-04-15T14:35:43;0.90;;;0.90;;
4011;SDS011;2020;48.682;9.024;2023-04-15T14:38:08;3.80;;;0.70;;
4011;SDS011;2020;48.682;9.024;2023-04-15T14:40:35;3.33;;;1.13;;
4011;SDS011;2020;48.682;9.024;2023-04-15T14:43:00;1.60;;;1.50;;
4011;SDS011;2020;48.682;9.024;2023-04-15T14:45:26;1.23;;;0.90;;
4011;SDS011;2020;48.682;9.024;2023-04-15T14:47:51;0.90;;;0.90;;
4011;SDS011;2020;48.682;9.024;2023-04-15T14:50:17;1.17;;;0.80;;
4011;SDS011;2020;48.682;9.024;2023-04-15T14:52:43;2.50;;;1.10;;
4011;SDS011;2020;48.682;9.024;2023-04-15T14:55:08;1.60;;;1.50;;
4011;SDS011;2020;48.682;9.024;2023-04-15T14:57:35;1.43;;;1.43;;
4011;SDS011;2020;48.682;9.024;2023-04-15T15:00:02;1.00;;;1.00;;
4011;SDS011;2020;48.682;9.024;2023-04-15T15:02:28;1.33;;;1.33;;
4011;SDS011;2020;48.682;9.024;2023-04-15T15:04:53;1.00;;;1.00;;
4011;SDS011;2020;48.682;9.024;2023-04-15T15:07:18;1.23;;;1.23;;
4011;SDS011;2020;48.682;9.024;2023-04-15T15:09:44;1.70;;;1.70;;
4011;SDS011;2020;48.682;9.024;2023-04-15T15:12:09;3.33;;;1.73;;
4011;SDS011;2020;48.682;9.024;2023-04-15T15:14:35;1.23;;;1.23;;
4011;SDS011;2020;48.682;9.024;2023-04-15T15:17:01;1.77;;;0.80;;
4011;SDS011;2020;48.682;9.024;2023-04-15T15:19:26;2.00;;;1.80;;
4011;SDS011;2020;48.682;9.024;2023-04-15T15:21:51;1.10;;;1.10;;
4011;SDS011;2020;48.682;9.024;2023-04-15T15:24:17;2.10;;;1.57;;
4011;SDS011;2020;48.682;9.024;2023-04-15T15:26:42;1.50;;;1.50;;
4011;SDS011;2020;48.682;9.024;2023-04-15T15:29:07;1.70;;;1.60;;
4011;SDS011;2020;48.682;9.024;2023-04-15T15:31:33;2.17;;;2.07;;